Time;durP1;ratioP1;P1;durP2;ratioP2;P2;SDS_P1;SDS_P2;PMS_P1;PMS_P2;Temp;Humidity;BMP_temperature;BMP_pressure;BME280_temperature;BME280_humidity;BME280_pressure;Samples;Min_cycle;Max_cycle;Signal;HPM_P1;HPM_P2
2022/01/03 00:02:24;;;;;;;35.10;5.07;;;;;;;14.33;100.00;100977.09;5096568;28;20046;-45
2022/01/03 00:04:50;;;;;;;38.17;6.10;;;;;;;14.53;100.00;100973.41;5097255;28;20268;-44
2022/01/03 00:07:16;;;;;;;46.95;6.05;;;;;;;14.31;100.00;100973.81;5078941;28;20863;-42
2022/01/03 00:09:42;;;;;;;25.27;4.38;;;;;;;14.35;100.00;100969.63;5095479;28;20062;-45
2022/01/03 00:12:08;;;;;;;30.90;5.45;;;;;;;14.54;100.00;100970.53;5095317;28;20040;-46
2022/01/03 00:14:34;;;;;;;42.85;6.38;;;;;;;14.47;100.00;100957.13;5078418;28;20043;-47
2022/01/03 00:17:00;;;;;;;29.52;4.70;;;;;;;14.33;100.00;100974.41;5096607;28;20044;-44
2022/01/03 00:19:25;;;;;;;42.13;6.45;;;;;;;14.41;100.00;100982.22;5097617;28;20044;-44
2022/01/03 00:21:56;;;;;;;23.60;5.13;;;;;;;14.32;100.00;100978.16;5095375;28;20040;-43
2022/01/03 00:24:31;;;;;;;34.37;4.70;;;;;;;14.20;100.00;100981.50;5096743;28;20119;-43
2022/01/03 00:27:05;;;;;;;24.83;4.20;;;;;;;14.21;100.00;100979.66;5096725;28;20264;-42
2022/01/03 00:29:56;;;;;;;37.70;6.63;;;;;;;14.27;100.00;101010.22;5096851;28;20403;-45
2022/01/03 00:32:22;;;;;;;38.87;5.90;;;;;;;14.27;100.00;100980.63;5093204;28;20289;-47
2022/01/03 00:34:51;;;;;;;46.43;7.20;;;;;;;14.50;100.00;100980.09;5097105;28;20747;-47
2022/01/03 00:37:18;;;;;;;43.37;6.10;;;;;;;14.61;100.00;100992.00;5096226;28;20256;-46
2022/01/03 00:39:45;;;;;;;41.27;6.77;;;;;;;14.65;100.00;100989.69;5096382;28;20632;-46
2022/01/03 00:42:14;;;;;;;52.77;6.37;;;;;;;14.48;100.00;100995.63;5095207;28;20315;-44
2022/01/03 00:44:42;;;;;;;38.20;8.13;;;;;;;14.83;100.00;100980.91;5095206;28;20253;-44
2022/01/03 00:47:10;;;;;;;37.07;6.03;;;;;;;14.70;100.00;101016.78;5096303;28;20354;-46
2022/01/03 00:49:40;;;;;;;27.07;5.13;;;;;;;14.54;100.00;100986.66;5094969;28;20342;-49
2022/01/03 00:52:06;;;;;;;38.27;9.33;;;;;;;14.60;100.00;100995.75;5096283;28;20269;-41
2022/01/03 00:54:31;;;;;;;38.67;5.47;;;;;;;14.39;100.00;100992.38;5095115;28;20280;-44
2022/01/03 00:57:07;;;;;;;34.03;6.60;;;;;;;14.52;100.00;101004.06;5077967;28;20094;-45
2022/01/03 00:59:56;;;;;;;33.35;4.40;;;;;;;14.42;100.00;101005.38;5078559;28;20539;-41
2022/01/03 01:02:24;;;;;;;27.23;4.07;;;;;;;14.55;100.00;101007.16;5094538;28;20059;-46
2022/01/03 01:04:52;;;;;;;27.73;4.30;;;;;;;15.01;100.00;101001.66;5094633;28;20272;-42
2022/01/03 01:07:18;;;;;;;36.43;5.37;;;;;;;14.98;100.00;101010.97;5095874;28;20612;-42
2022/01/03 01:09:50;;;;;;;26.25;4.72;;;;;;;14.50;100.00;101015.06;5094686;28;20287;-41
2022/01/03 01:12:18;;;;;;;38.90;5.30;;;;;;;14.41;100.00;101008.28;5094671;28;20036;-41
2022/01/03 01:14:43;;;;;;;33.47;5.80;;;;;;;14.70;100.00;101006.03;5061261;28;20296;-44
2022/01/03 01:17:09;;;;;;;34.42;4.47;;;;;;;14.55;100.00;101007.16;5095417;28;20269;-43
2022/01/03 01:19:35;;;;;;;33.10;4.70;;;;;;;14.70;100.00;101025.69;5077548;28;20040;-43
2022/01/03 01:22:02;;;;;;;33.53;5.57;;;;;;;14.49;100.00;101011.53;5078243;28;20036;-43
2022/01/03 01:24:33;;;;;;;38.90;4.30;;;;;;;14.55;100.00;100992.88;5078145;28;20337;-48
2022/01/03 01:29:44;;;;;;;32.13;5.97;;;;;;;14.85;100.00;101008.41;5080377;28;20753;-48
2022/01/03 01:32:14;;;;;;;32.87;5.37;;;;;;;14.74;100.00;101001.88;5094008;28;20283;-46
2022/01/03 01:34:44;;;;;;;32.33;4.77;;;;;;;14.54;100.00;101007.38;5077447;28;20289;-47
2022/01/03 01:37:12;;;;;;;32.73;5.00;;;;;;;14.68;100.00;101010.81;5094762;28;20273;-46
2022/01/03 01:39:42;;;;;;;39.63;5.17;;;;;;;14.65;100.00;101014.75;5093797;28;20368;-45
2022/01/03 01:42:12;;;;;;;24.87;4.10;;;;;;;14.81;100.00;101004.53;5093965;28;20277;-47
2022/01/03 01:44:45;;;;;;;40.77;6.20;;;;;;;14.70;100.00;101006.84;5078021;28;20287;-50
2022/01/03 01:47:11;;;;;;;35.07;5.70;;;;;;;14.43;100.00;101001.66;5078874;28;20281;-45
2022/01/03 01:49:44;;;;;;;35.50;6.15;;;;;;;14.94;100.00;101004.41;5094467;28;20296;-43
2022/01/03 01:52:22;;;;;;;25.57;4.77;;;;;;;14.36;100.00;101017.03;5095423;28;20051;-45
2022/01/03 01:55:03;;;;;;;31.53;6.00;;;;;;;14.76;100.00;101005.19;5077979;28;20756;-46
2022/01/03 01:57:55;;;;;;;37.80;4.70;;;;;;;14.72;100.00;101007.47;5094409;28;20346;-43
2022/01/03 02:00:27;;;;;;;45.03;5.53;;;;;;;14.83;100.00;101005.13;5094230;28;20288;-43
2022/01/03 02:03:15;;;;;;;38.10;6.17;;;;;;;14.45;100.00;101033.72;5093461;28;20281;-45
2022/01/03 02:06:01;;;;;;;30.60;4.93;;;;;;;14.53;100.00;101011.94;5093559;28;20268;-48
2022/01/03 02:08:33;;;;;;;27.43;4.87;;;;;;;14.44;100.00;101027.50;5094888;28;20284;-47
2022/01/03 02:11:05;;;;;;;47.40;4.73;;;;;;;14.39;100.00;101027.34;5094117;28;20268;-43
2022/01/03 02:13:33;;;;;;;29.73;5.87;;;;;;;14.32;100.00;101015.81;5077713;28;20293;-45
2022/01/03 02:16:03;;;;;;;23.40;4.30;;;;;;;14.17;100.00;101011.53;5076428;28;20364;-42
2022/01/03 02:18:32;;;;;;;42.53;4.93;;;;;;;14.17;100.00;101008.00;5076885;28;20284;-44
2022/01/03 02:20:58;;;;;;;38.55;5.45;;;;;;;14.29;100.00;101022.44;5094307;28;20287;-42
2022/01/03 02:23:24;;;;;;;32.23;3.97;;;;;;;14.34;100.00;101019.09;5093241;28;20044;-41
2022/01/03 02:25:52;;;;;;;38.83;5.77;;;;;;;14.48;100.00;101041.38;5093190;28;20260;-44
2022/01/03 02:28:20;;;;;;;32.50;3.97;;;;;;;14.40;100.00;101012.00;5093869;28;20662;-42
2022/01/03 02:30:47;;;;;;;26.40;4.40;;;;;;;14.49;100.00;101024.19;5092868;28;20058;-45
2022/01/03 02:33:13;;;;;;;28.92;4.80;;;;;;;14.44;100.00;101024.81;5093730;28;20343;-43
2022/01/03 02:35:41;;;;;;;31.75;4.60;;;;;;;14.44;100.00;101007.88;5092998;28;20524;-45
2022/01/03 02:38:10;;;;;;;37.13;4.87;;;;;;;14.23;100.00;101017.09;5092751;28;20036;-48
2022/01/03 02:40:36;;;;;;;27.20;4.45;;;;;;;14.00;100.00;101013.91;5093231;28;20288;-44
2022/01/03 02:43:02;;;;;;;31.33;4.43;;;;;;;14.58;100.00;101022.06;5094195;28;20454;-43
2022/01/03 02:45:28;;;;;;;28.13;4.33;;;;;;;14.22;100.00;101018.13;5093266;28;20093;-42
2022/01/03 02:48:02;;;;;;;39.70;5.30;;;;;;;14.22;100.00;101012.75;5093358;28;20295;-47
2022/01/03 02:50:30;;;;;;;37.60;5.03;;;;;;;14.22;100.00;101010.06;5094442;28;20275;-44
2022/01/03 02:52:56;;;;;;;37.23;4.20;;;;;;;14.31;100.00;101011.47;5093738;28;20276;-45
2022/01/03 02:55:23;;;;;;;31.80;4.07;;;;;;;13.85;100.00;101019.56;5093836;28;20352;-43
2022/01/03 02:57:53;;;;;;;29.88;4.55;;;;;;;14.27;100.00;101018.28;5075923;28;20276;-46
2022/01/03 03:00:23;;;;;;;24.37;4.50;;;;;;;14.54;100.00;101008.19;5092951;28;20143;-43
2022/01/03 03:02:49;;;;;;;40.47;5.10;;;;;;;14.15;100.00;101010.91;5093873;28;20272;-44
2022/01/03 03:05:17;;;;;;;27.07;4.43;;;;;;;14.42;100.00;101029.59;5092631;28;20326;-43
2022/01/03 03:07:45;;;;;;;46.17;4.55;;;;;;;14.20;100.00;101021.84;5092392;28;20345;-45
2022/01/03 03:10:15;;;;;;;31.87;6.17;;;;;;;13.68;100.00;101045.25;5092518;28;20131;-43
2022/01/03 03:12:41;;;;;;;32.53;5.07;;;;;;;13.93;100.00;101020.34;5075720;28;20294;-46
2022/01/03 03:15:09;;;;;;;35.90;4.60;;;;;;;13.81;100.00;101020.97;5093035;28;20285;-46
2022/01/03 03:17:36;;;;;;;26.33;4.27;;;;;;;14.03;100.00;101012.63;5091554;28;20108;-47
2022/01/03 03:20:14;;;;;;;31.17;5.30;;;;;;;13.97;100.00;101006.25;5093503;28;20280;-47
2022/01/03 03:22:40;;;;;;;25.13;5.47;;;;;;;14.10;100.00;101008.06;5092971;28;20268;-42
2022/01/03 03:25:10;;;;;;;37.63;5.10;;;;;;;14.05;100.00;101015.91;5075710;28;20276;-43
2022/01/03 03:27:43;;;;;;;42.57;4.77;;;;;;;13.83;100.00;101010.03;5092790;28;20625;-48
2022/01/03 03:30:15;;;;;;;31.90;4.17;;;;;;;13.93;100.00;101020.34;5093446;28;20281;-43
2022/01/03 03:32:43;;;;;;;38.00;4.83;;;;;;;14.05;100.00;101015.91;5092877;28;20269;-41
2022/01/03 03:35:09;;;;;;;35.07;5.63;;;;;;;14.05;100.00;101013.22;5092242;28;20747;-42
2022/01/03 03:37:34;;;;;;;33.95;5.18;;;;;;;14.18;100.00;101009.66;5094322;28;20267;-42
2022/01/03 03:40:00;;;;;;;32.10;5.45;;;;;;;14.26;100.00;101005.88;5092328;28;20116;-45
2022/01/03 03:42:26;;;;;;;19.20;4.32;;;;;;;13.96;100.00;101015.38;5075779;28;20040;-46
2022/01/03 03:44:53;;;;;;;36.50;6.27;;;;;;;14.00;100.00;101019.28;5093007;28;20066;-42
2022/01/03 03:47:19;;;;;;;43.05;4.70;;;;;;;14.34;100.00;101011.03;5091978;28;20819;-46
2022/01/03 03:49:45;;;;;;;22.85;4.38;;;;;;;14.18;100.00;101017.72;5076404;28;20063;-44
2022/01/03 03:52:11;;;;;;;32.67;5.18;;;;;;;13.89;100.00;101023.47;5075382;28;20472;-48
2022/01/03 03:54:37;;;;;;;27.48;4.70;;;;;;;14.24;100.00;101013.34;5093426;28;20094;-42
2022/01/03 03:57:03;;;;;;;21.92;3.92;;;;;;;13.89;100.00;101007.31;5075389;28;20468;-42
2022/01/03 03:59:30;;;;;;;32.63;6.77;;;;;;;14.35;100.00;101010.00;5092314;28;20131;-44
2022/01/03 04:01:57;;;;;;;40.80;6.50;;;;;;;14.49;100.00;101006.16;5093224;28;20312;-44
2022/01/03 04:04:24;;;;;;;36.50;6.93;;;;;;;14.15;100.00;101002.00;5091979;28;20044;-44
2022/01/03 04:06:50;;;;;;;46.53;5.82;;;;;;;13.94;100.00;101011.22;5075820;28;20273;-52
2022/01/03 04:09:17;;;;;;;41.70;7.50;;;;;;;14.51;100.00;100997.03;5092768;28;20032;-45
2022/01/03 04:11:43;;;;;;;28.27;4.68;;;;;;;14.17;100.00;101013.38;5092510;28;20330;-45
2022/01/03 04:14:09;;;;;;;;;;;;;;;14.19;100.00;100992.50;5075648;28;20080;-44
2022/01/03 04:16:35;;;;;;;32.13;4.70;;;;;;;14.47;100.00;100999.34;5092130;28;19963;-42
2022/01/03 04:19:02;;;;;;;;;;;;;;;14.57;100.00;101010.44;5060067;28;20164;-42
2022/01/03 04:21:28;;;;;;;29.50;4.23;;;;;;;14.14;100.00;100995.81;5092715;28;19954;-44
2022/01/03 04:23:54;;;;;;;27.52;6.30;;;;;;;14.53;100.00;101011.09;5092963;28;20268;-44
2022/01/03 04:26:20;;;;;;;22.17;3.67;;;;;;;14.55;100.00;100999.09;5075835;28;20048;-47
2022/01/03 04:28:46;;;;;;;33.53;5.18;;;;;;;14.52;100.00;100999.53;5093790;28;20093;-47
2022/01/03 04:31:12;;;;;;;;;;;;;;;14.53;100.00;101000.34;5096717;28;20126;-47
2022/01/03 04:33:37;;;;;;;27.17;3.77;;;;;;;14.17;100.00;100989.16;5096703;28;20406;-47
2022/01/03 04:36:04;;;;;;;46.72;7.03;;;;;;;14.41;100.00;101003.72;5078836;28;20100;-43
2022/01/03 04:38:30;;;;;;;27.88;4.88;;;;;;;14.23;100.00;100998.25;5095170;28;20403;-46
2022/01/03 04:40:56;;;;;;;30.83;5.00;;;;;;;14.22;100.00;100999.28;5096162;28;20035;-49
2022/01/03 04:43:21;;;;;;;37.17;5.25;;;;;;;14.29;100.00;100995.53;5095994;28;20046;-47
2022/01/03 04:45:47;;;;;;;42.67;6.30;;;;;;;14.22;100.00;100992.06;5094935;28;20093;-43
2022/01/03 04:48:13;;;;;;;39.55;6.00;;;;;;;14.08;100.00;100977.03;5061688;28;20036;-47
2022/01/03 04:50:39;;;;;;;35.40;5.85;;;;;;;14.11;100.00;100977.44;5078220;28;20096;-50
2022/01/03 04:53:04;;;;;;;38.85;6.10;;;;;;;14.13;100.00;100971.81;5095497;28;20043;-45
2022/01/03 04:55:30;;;;;;;30.65;5.00;;;;;;;14.23;100.00;100971.34;5095894;28;20032;-45
2022/01/03 04:57:56;;;;;;;32.33;4.57;;;;;;;13.97;100.00;100974.00;5096629;28;20036;-48
2022/01/03 05:00:21;;;;;;;23.73;5.15;;;;;;;14.10;100.00;100975.78;5095602;28;20292;-44
2022/01/03 05:02:47;;;;;;;37.38;5.93;;;;;;;14.17;100.00;100983.78;5078591;28;20388;-45
2022/01/03 05:05:14;;;;;;;31.75;4.40;;;;;;;14.10;100.00;100975.78;5094712;28;20582;-45
2022/01/03 05:07:40;;;;;;;33.83;6.60;;;;;;;14.08;100.00;100983.25;5094574;28;20040;-45
2022/01/03 05:10:06;;;;;;;30.05;5.28;;;;;;;14.10;100.00;100964.19;5095020;28;20036;-44
2022/01/03 05:12:32;;;;;;;;;;;;;;;14.10;100.00;100970.41;5095119;28;20036;-44
2022/01/03 05:14:58;;;;;;;26.20;6.00;;;;;;;13.93;100.00;100971.94;5077601;28;20399;-43
2022/01/03 05:17:23;;;;;;;35.03;4.23;;;;;;;13.95;100.00;100977.94;5094383;28;20492;-43
2022/01/03 05:19:49;;;;;;;37.88;4.80;;;;;;;14.04;100.00;100976.63;5096034;28;20274;-47
2022/01/03 05:22:15;;;;;;;28.67;4.82;;;;;;;14.29;100.00;100967.78;5095288;28;20106;-42
2022/01/03 05:24:42;;;;;;;;;;;;;;;14.22;100.00;100972.41;5094919;28;20036;-46
2022/01/03 05:27:07;;;;;;;43.43;5.53;;;;;;;13.97;100.00;100960.56;5094381;28;20261;-44
2022/01/03 05:29:34;;;;;;;37.42;5.45;;;;;;;14.48;100.00;100966.84;5094218;28;20044;-43
2022/01/03 05:32:01;;;;;;;37.83;5.67;;;;;;;14.19;100.00;100958.34;5095691;28;20112;-43
2022/01/03 05:34:27;;;;;;;;;;;;;;;14.13;100.00;100961.91;5094649;28;20284;-45
2022/01/03 05:36:53;;;;;;;26.40;4.57;;;;;;;14.18;100.00;100958.53;5094258;28;19908;-47
2022/01/03 05:39:20;;;;;;;34.35;4.90;;;;;;;14.40;100.00;100955.50;5077772;28;20693;-45
2022/01/03 05:41:46;;;;;;;34.22;4.65;;;;;;;14.52;100.00;100958.31;5076933;28;20059;-45
2022/01/03 05:44:12;;;;;;;26.88;5.10;;;;;;;14.43;100.00;100949.72;5094265;28;20044;-45
2022/01/03 05:46:39;;;;;;;34.20;5.10;;;;;;;14.43;100.00;100955.91;5094585;28;20044;-44
2022/01/03 05:49:06;;;;;;;33.75;5.63;;;;;;;14.51;100.00;100976.34;5094506;28;20127;-43
2022/01/03 05:51:32;;;;;;;22.23;4.17;;;;;;;14.49;100.00;100957.72;5077653;28;20052;-43
2022/01/03 05:53:58;;;;;;;44.30;4.32;;;;;;;13.98;100.00;100940.69;5095187;28;20299;-43
2022/01/03 05:56:24;;;;;;;26.38;4.47;;;;;;;14.17;100.00;100949.66;5094285;28;20383;-44
2022/01/03 05:58:52;;;;;;;30.45;5.50;;;;;;;14.12;100.00;100987.16;5060539;28;20055;-44
2022/01/03 06:01:22;;;;;;;32.93;5.13;;;;;;;14.22;100.00;100951.72;5093787;28;20079;-43
2022/01/03 06:03:56;;;;;;;33.53;6.10;;;;;;;14.34;100.00;100944.59;5093779;28;20288;-43
2022/01/03 06:06:53;;;;;;;33.37;5.40;;;;;;;14.20;100.00;100943.03;5094477;28;20689;-43
2022/01/03 06:09:09;;;;;;;24.00;4.13;;;;;;;14.29;100.00;100947.09;5093272;28;20296;-42
2022/01/03 06:11:34;;;;;;;42.28;7.75;;;;;;;14.23;100.00;100936.38;5060066;28;20759;-44
2022/01/03 06:14:00;;;;;;;40.33;5.45;;;;;;;14.57;100.00;100943.16;5077331;28;20044;-46
2022/01/03 06:16:26;;;;;;;28.83;4.45;;;;;;;14.37;100.00;100931.72;5094619;28;20381;-43
2022/01/03 06:18:52;;;;;;;40.63;4.85;;;;;;;14.49;100.00;100936.19;5094060;28;20457;-43
2022/01/03 06:21:17;;;;;;;32.15;3.75;;;;;;;14.36;100.00;100949.75;5093981;28;20044;-44
2022/01/03 06:23:44;;;;;;;33.90;4.60;;;;;;;14.27;100.00;100938.44;5076882;28;20044;-45
2022/01/03 06:26:10;;;;;;;;;;;;;;;14.14;100.00;100955.47;5093735;28;20040;-45
2022/01/03 06:28:42;;;;;;;19.97;3.97;;;;;;;14.12;100.00;100929.84;5077756;28;19981;-43
2022/01/03 06:31:10;;;;;;;26.47;4.37;;;;;;;14.08;100.00;100939.38;5076865;28;20356;-41
2022/01/03 06:33:35;;;;;;;26.63;4.23;;;;;;;14.35;100.00;100931.97;5093059;28;20275;-43
2022/01/03 06:36:02;;;;;;;;;;;;;;;14.48;100.00;100923.78;5094305;28;20042;-45
2022/01/03 06:38:28;;;;;;;33.33;4.93;;;;;;;14.53;100.00;100930.38;5094020;28;19915;-43
2022/01/03 06:40:53;;;;;;;43.20;6.10;;;;;;;14.44;100.00;100932.53;5076078;28;20288;-44
2022/01/03 06:43:23;;;;;;;31.57;5.07;;;;;;;14.11;100.00;100934.41;5093027;28;20621;-43
2022/01/03 06:45:49;;;;;;;28.20;4.80;;;;;;;14.12;100.00;100932.53;5093805;28;20276;-42
2022/01/03 06:48:14;;;;;;;32.50;6.00;;;;;;;14.35;100.00;100915.84;5093642;28;20400;-43
2022/01/03 06:50:40;;;;;;;31.75;4.05;;;;;;;14.45;100.00;100934.19;5059153;28;20459;-44
2022/01/03 06:53:05;;;;;;;37.83;4.93;;;;;;;14.20;100.00;100930.41;5092103;28;20035;-43
2022/01/03 06:55:32;;;;;;;43.77;5.70;;;;;;;13.91;100.00;100946.09;5076010;28;20129;-43
2022/01/03 06:57:58;;;;;;;44.80;4.47;;;;;;;14.30;100.00;100921.00;5092864;28;20729;-43
2022/01/03 07:00:24;;;;;;;;;;;;;;;14.54;100.00;100918.59;5059467;28;20044;-44
2022/01/03 07:02:51;;;;;;;23.85;3.40;;;;;;;14.01;100.00;100920.59;5092903;28;19920;-42
2022/01/03 07:05:17;;;;;;;21.50;4.53;;;;;;;14.28;100.00;100926.63;5092601;28;20051;-45
2022/01/03 07:07:42;;;;;;;24.30;4.63;;;;;;;14.30;100.00;100912.94;5092527;28;20039;-43
2022/01/03 07:10:11;;;;;;;24.57;4.23;;;;;;;14.06;100.00;100928.84;5093460;28;20048;-44
2022/01/03 07:12:39;;;;;;;25.97;5.77;;;;;;;14.33;100.00;100920.59;5093446;28;20300;-42
2022/01/03 07:20:35;;;;;;;24.83;4.13;;;;;;;14.35;100.00;100923.91;5092677;28;20268;-45
2022/01/03 07:23:00;;;;;;;26.80;5.82;;;;;;;14.26;100.00;100904.50;5093709;28;20674;-43
2022/01/03 07:25:26;;;;;;;30.07;4.30;;;;;;;14.41;100.00;100901.50;5092891;28;20079;-43
2022/01/03 07:27:51;;;;;;;27.87;5.00;;;;;;;14.58;100.00;100911.72;5092263;28;20040;-44
2022/01/03 07:30:17;;;;;;;39.20;5.00;;;;;;;14.79;100.00;100915.09;5093572;28;20351;-42
2022/01/03 07:32:43;;;;;;;33.17;6.32;;;;;;;14.47;100.00;100922.13;5093884;28;20117;-44
2022/01/03 07:35:13;;;;;;;24.95;4.03;;;;;;;14.33;100.00;100926.00;5092754;28;20139;-44
2022/01/03 07:37:40;;;;;;;19.27;4.10;;;;;;;14.35;100.00;100923.91;5091748;28;20048;-43
2022/01/03 07:40:05;;;;;;;24.88;3.88;;;;;;;14.56;100.00;100928.06;5092368;28;20272;-42
2022/01/03 07:42:31;;;;;;;16.58;2.85;;;;;;;14.52;100.00;100923.34;5093643;28;20396;-43
2022/01/03 07:44:59;;;;;;;46.10;6.03;;;;;;;14.59;100.00;100933.00;5093434;28;20044;-43
2022/01/03 07:47:25;;;;;;;32.60;5.60;;;;;;;14.39;100.00;100941.25;5075133;28;20289;-44
2022/01/03 07:49:50;;;;;;;29.80;5.03;;;;;;;14.46;100.00;100928.56;5092934;28;20756;-44
2022/01/03 07:52:16;;;;;;;22.27;4.18;;;;;;;14.67;100.00;100952.63;5091461;28;20174;-46
2022/01/03 07:54:41;;;;;;;29.27;5.57;;;;;;;14.47;100.00;100949.03;5093077;28;20040;-42
2022/01/03 07:57:07;;;;;;;28.03;4.13;;;;;;;14.41;100.00;100976.81;5092279;28;20292;-49
2022/01/03 07:59:32;;;;;;;34.37;4.30;;;;;;;14.50;100.00;100958.56;5093115;28;20127;-42
2022/01/03 08:01:59;;;;;;;26.60;4.22;;;;;;;14.82;100.00;100946.94;5092738;28;20068;-42
2022/01/03 08:04:26;;;;;;;23.97;4.37;;;;;;;14.48;100.00;100956.06;5096109;28;20093;-44
2022/01/03 08:06:51;;;;;;;22.63;3.57;;;;;;;14.20;100.00;100943.03;5078960;28;20756;-42
2022/01/03 08:09:17;;;;;;;26.75;5.05;;;;;;;14.10;100.00;100967.72;5096169;28;20102;-43
2022/01/03 08:11:42;;;;;;;22.23;4.90;;;;;;;14.33;100.00;100944.81;5096766;28;20051;-45
2022/01/03 08:14:08;;;;;;;30.60;4.10;;;;;;;14.22;100.00;100940.13;5096948;28;20055;-42
2022/01/03 08:16:34;;;;;;;44.83;7.85;;;;;;;14.33;100.00;100948.31;5095753;28;20040;-43
2022/01/03 08:19:00;;;;;;;32.13;5.10;;;;;;;14.41;100.00;100927.56;5097104;28;20051;-43
2022/01/03 08:21:26;;;;;;;23.42;4.18;;;;;;;14.69;100.00;100943.28;5078891;28;20036;-44
2022/01/03 08:23:51;;;;;;;25.37;4.20;;;;;;;14.36;100.00;100952.44;5095421;28;20040;-43
2022/01/03 08:26:17;;;;;;;27.77;4.33;;;;;;;14.92;100.00;100936.47;5096758;28;20272;-44
2022/01/03 08:28:43;;;;;;;16.80;3.63;;;;;;;14.50;100.00;100963.94;5095123;28;20038;-44
2022/01/03 08:31:09;;;;;;;25.23;5.25;;;;;;;14.53;100.00;100914.22;5095764;28;20133;-44
2022/01/03 08:33:34;;;;;;;23.17;6.30;;;;;;;14.60;100.00;100929.28;5097267;28;20084;-45
2022/01/03 08:36:01;;;;;;;29.80;5.20;;;;;;;14.42;100.00;100935.44;5095305;28;20032;-46
2022/01/03 08:38:26;;;;;;;32.43;5.53;;;;;;;14.54;100.00;100932.03;5095085;28;20472;-47
2022/01/03 08:40:52;;;;;;;24.50;4.88;;;;;;;15.09;100.00;100930.53;5096370;28;20097;-43
2022/01/03 08:43:18;;;;;;;26.63;4.97;;;;;;;14.66;100.00;100918.69;5095301;28;20089;-45
2022/01/03 08:45:43;;;;;;;28.90;4.20;;;;;;;14.69;100.00;100927.13;5095773;28;20032;-43
2022/01/03 08:48:09;;;;;;;21.67;5.43;;;;;;;14.66;100.00;100930.25;5095744;28;20342;-45
2022/01/03 08:50:34;;;;;;;23.60;4.57;;;;;;;14.70;100.00;100936.84;5094408;28;20427;-46
2022/01/03 08:53:01;;;;;;;23.80;4.60;;;;;;;14.22;100.00;100953.56;5094337;28;20051;-45
2022/01/03 08:55:26;;;;;;;27.92;4.82;;;;;;;14.52;100.00;100955.63;5095611;28;20028;-45
2022/01/03 08:57:52;;;;;;;21.88;3.95;;;;;;;14.44;100.00;100941.41;5094651;28;20085;-45
2022/01/03 09:00:19;;;;;;;28.00;5.28;;;;;;;14.68;100.00;100947.00;5096059;28;20044;-43
2022/01/03 09:02:45;;;;;;;26.03;4.03;;;;;;;14.68;100.00;100971.25;5095484;28;20039;-47
2022/01/03 09:05:10;;;;;;;24.83;5.10;;;;;;;14.88;100.00;100952.28;5077121;28;20273;-43
2022/01/03 09:07:36;;;;;;;30.13;4.87;;;;;;;14.51;100.00;100976.34;5094477;28;20442;-46
2022/01/03 09:10:04;;;;;;;35.38;5.38;;;;;;;14.98;100.00;100949.03;5094483;28;20051;-45
2022/01/03 09:12:29;;;;;;;34.03;5.33;;;;;;;14.76;100.00;100941.41;5095845;28;20035;-45
2022/01/03 09:14:55;;;;;;;24.73;5.27;;;;;;;14.63;100.00;100950.34;5093698;28;20338;-45
2022/01/03 09:17:21;;;;;;;28.17;4.97;;;;;;;14.42;100.00;100953.44;5095744;28;20384;-50
2022/01/03 09:19:46;;;;;;;27.73;4.15;;;;;;;14.60;100.00;100936.53;5096415;28;20281;-44
2022/01/03 09:22:16;;;;;;;30.38;5.70;;;;;;;14.89;100.00;100915.38;5095753;28;20032;-46
2022/01/03 09:24:46;;;;;;;32.30;4.57;;;;;;;14.94;100.00;100923.63;5095276;28;20047;-48
2022/01/03 09:29:58;;;;;;;24.63;5.95;;;;;;;14.74;100.00;100924.63;5095427;28;20269;-44
2022/01/03 09:32:24;;;;;;;29.27;4.50;;;;;;;14.72;100.00;100936.69;5095324;28;20044;-44
2022/01/03 09:34:49;;;;;;;27.87;4.63;;;;;;;15.21;100.00;100931.41;5094417;28;20036;-53
2022/01/03 09:37:20;;;;;;;26.03;4.50;;;;;;;14.81;100.00;100934.53;5096052;28;20412;-49
2022/01/03 09:39:48;;;;;;;24.80;4.50;;;;;;;14.83;100.00;100919.78;5095396;28;20044;-51
2022/01/03 09:42:19;;;;;;;30.50;4.07;;;;;;;14.68;100.00;100928.16;5095580;28;20288;-46
2022/01/03 09:44:46;;;;;;;20.57;4.77;;;;;;;15.10;100.00;100924.09;5093943;28;20274;-45
2022/01/03 09:47:17;;;;;;;28.67;4.93;;;;;;;15.02;100.00;100917.97;5094873;28;20300;-46
2022/01/03 09:49:43;;;;;;;32.47;5.10;;;;;;;14.67;100.00;100921.16;5094813;28;20292;-44
2022/01/03 09:52:09;;;;;;;27.30;4.55;;;;;;;14.97;100.00;100908.88;5094481;28;20288;-43
2022/01/03 09:54:37;;;;;;;30.13;5.95;;;;;;;14.77;100.00;100934.13;5095014;28;20396;-48
2022/01/03 09:57:04;;;;;;;41.70;5.07;;;;;;;15.16;100.00;100907.84;5095110;28;20098;-43
2022/01/03 09:59:31;;;;;;;27.07;4.77;;;;;;;14.92;100.00;100901.47;5095167;28;20309;-44
2022/01/03 10:01:58;;;;;;;;;;;;;;;14.65;100.00;100925.94;5095587;28;20280;-42
2022/01/03 10:04:24;;;;;;;22.27;4.43;;;;;;;14.85;100.00;100900.72;5094776;28;19958;-43
2022/01/03 10:06:50;;;;;;;;;;;;;;;14.91;100.00;100913.28;5095311;28;20047;-43
2022/01/03 10:09:19;;;;;;;35.80;5.47;;;;;;;14.86;100.00;100932.00;5094211;28;19920;-43
2022/01/03 10:11:44;;;;;;;26.27;4.93;;;;;;;15.21;100.00;100928.72;5094125;28;20269;-43
2022/01/03 10:14:12;;;;;;;25.83;5.70;;;;;;;14.79;100.00;100917.78;5094602;28;20363;-45
2022/01/03 10:16:38;;;;;;;31.20;5.93;;;;;;;14.60;100.00;100958.88;5094253;28;20036;-43
2022/01/03 10:19:04;;;;;;;39.10;6.07;;;;;;;14.93;100.00;100907.69;5094455;28;20272;-46
2022/01/03 10:21:51;;;;;;;30.23;4.77;;;;;;;14.96;100.00;100926.91;5094377;28;20376;-46
2022/01/03 10:24:19;;;;;;;30.00;4.47;;;;;;;14.83;100.00;100902.81;5094879;28;20256;-44
2022/01/03 10:26:53;;;;;;;28.80;6.60;;;;;;;14.91;100.00;100910.59;5094197;28;20028;-43
2022/01/03 10:29:21;;;;;;;41.20;6.73;;;;;;;14.99;100.00;100918.41;5093003;28;20281;-44
2022/01/03 10:31:49;;;;;;;26.13;4.93;;;;;;;15.05;100.00;100912.13;5093090;28;20272;-47
2022/01/03 10:34:17;;;;;;;27.83;3.80;;;;;;;14.83;100.00;100918.97;5094591;28;20276;-48
2022/01/03 10:36:45;;;;;;;24.93;4.70;;;;;;;15.40;100.00;100915.25;5093960;28;20751;-42
2022/01/03 10:39:23;;;;;;;34.30;6.70;;;;;;;15.64;100.00;100913.50;5092870;28;20280;-45
2022/01/03 10:41:53;;;;;;;25.87;4.20;;;;;;;15.29;100.00;100897.97;5093003;28;20257;-45
2022/01/03 10:44:31;;;;;;;30.20;5.00;;;;;;;15.53;100.00;100898.09;5094106;28;20724;-46
2022/01/03 10:46:56;;;;;;;37.13;5.40;;;;;;;15.30;100.00;100905.00;5094540;28;20828;-44
2022/01/03 10:49:25;;;;;;;38.17;5.30;;;;;;;15.44;100.00;100903.78;5092630;28;20289;-45
2022/01/03 10:51:50;;;;;;;24.57;4.83;;;;;;;15.46;100.00;100895.50;5093611;28;20055;-46
2022/01/03 10:54:18;;;;;;;34.65;5.25;;;;;;;15.47;100.00;100880.97;5092545;28;20273;-44
2022/01/03 10:56:47;;;;;;;30.63;5.37;;;;;;;14.88;100.00;100884.13;5093826;28;20040;-46
2022/01/03 10:59:16;;;;;;;20.83;4.87;;;;;;;15.09;100.00;100884.72;5093557;28;20280;-46
2022/01/03 11:01:44;;;;;;;29.40;5.40;;;;;;;15.63;100.00;100876.81;5092448;28;20315;-50
2022/01/03 11:04:14;;;;;;;35.93;4.87;;;;;;;15.25;100.00;100867.13;5091967;28;20733;-47
2022/01/03 11:11:51;;;;;;;36.73;4.90;;;;;;;15.36;100.00;100868.25;5077259;28;20482;-43
2022/01/03 11:14:38;;;;;;;41.77;4.90;;;;;;;15.10;100.00;100870.22;5093277;28;20625;-43
2022/01/03 11:17:25;;;;;;;35.43;5.80;;;;;;;15.14;100.00;100879.50;5092657;28;20340;-44
2022/01/03 11:19:51;;;;;;;28.60;4.95;;;;;;;15.00;100.00;100868.88;5092310;28;20265;-46
2022/01/03 11:22:41;;;;;;;26.55;4.07;;;;;;;15.28;100.00;100866.69;5093226;28;20036;-43
2022/01/03 11:25:07;;;;;;;21.60;3.60;;;;;;;15.58;100.00;100858.63;5093077;28;20059;-46
2022/01/03 11:27:38;;;;;;;26.88;4.38;;;;;;;15.26;100.00;100863.41;5093903;28;20273;-42
2022/01/03 11:30:08;;;;;;;27.83;4.83;;;;;;;15.48;100.00;100856.47;5092431;28;20523;-47
2022/01/03 11:32:36;;;;;;;26.47;3.83;;;;;;;15.42;100.00;100848.47;5093399;28;20322;-45